sensor_id;sensor_type;location;lat;lon;timestamp;pressure;altitude;pressure_sealevel;temperature;humidity
40708;BME280;26392;42.696;23.350;2022-08-19T00:01:49;95012.53;;;21.97;63.67
40708;BME280;26392;42.696;23.350;2022-08-19T00:04:16;95029.47;;;21.95;63.90
40708;BME280;26392;42.696;23.350;2022-08-19T00:06:44;95032.78;;;21.88;64.58
40708;BME280;26392;42.696;23.350;2022-08-19T00:09:13;95033.16;;;21.78;64.43
40708;BME280;26392;42.696;23.350;2022-08-19T00:11:40;95032.22;;;21.74;64.68
40708;BME280;26392;42.696;23.350;2022-08-19T00:14:07;95033.03;;;21.75;64.23
40708;BME280;26392;42.696;23.350;2022-08-19T00:16:35;95029.56;;;21.78;64.70
40708;BME280;26392;42.696;23.350;2022-08-19T00:19:02;95032.34;;;21.78;64.16
40708;BME280;26392;42.696;23.350;2022-08-19T00:21:27;95043.16;;;21.71;64.73
40708;BME280;26392;42.696;23.350;2022-08-19T00:23:54;95046.91;;;21.66;64.51
40708;BME280;26392;42.696;23.350;2022-08-19T00:26:20;95045.94;;;21.62;64.75
40708;BME280;26392;42.696;23.350;2022-08-19T00:28:46;95043.69;;;21.55;65.33
40708;BME280;26392;42.696;23.350;2022-08-19T00:31:12;95048.47;;;21.46;65.36
40708;BME280;26392;42.696;23.350;2022-08-19T00:33:38;95042.25;;;21.49;64.95
40708;BME280;26392;42.696;23.350;2022-08-19T00:36:06;95048.75;;;21.53;64.25
40708;BME280;26392;42.696;23.350;2022-08-19T00:38:35;95039.00;;;21.47;64.59
40708;BME280;26392;42.696;23.350;2022-08-19T00:41:01;95041.63;;;21.43;63.48
40708;BME280;26392;42.696;23.350;2022-08-19T00:43:27;95028.06;;;21.33;64.85
40708;BME280;26392;42.696;23.350;2022-08-19T00:45:53;95028.44;;;21.23;64.84
40708;BME280;26392;42.696;23.350;2022-08-19T00:48:19;95033.00;;;21.19;64.11
40708;BME280;26392;42.696;23.350;2022-08-19T00:50:48;95036.94;;;21.18;64.21
40708;BME280;26392;42.696;23.350;2022-08-19T00:53:15;95030.72;;;21.21;64.47
40708;BME280;26392;42.696;23.350;2022-08-19T00:55:45;95026.03;;;21.13;64.46
40708;BME280;26392;42.696;23.350;2022-08-19T00:58:14;95032.72;;;21.12;64.33
40708;BME280;26392;42.696;23.350;2022-08-19T01:00:41;95028.78;;;21.13;64.36
40708;BME280;26392;42.696;23.350;2022-08-19T01:03:10;95039.91;;;20.95;64.50
40708;BME280;26392;42.696;23.350;2022-08-19T01:05:37;95036.50;;;20.90;64.83
40708;BME280;26392;42.696;23.350;2022-08-19T01:08:06;95038.63;;;20.84;65.23
40708;BME280;26392;42.696;23.350;2022-08-19T01:10:35;95037.78;;;20.84;65.22
40708;BME280;26392;42.696;23.350;2022-08-19T01:13:02;95041.56;;;20.70;66.05
40708;BME280;26392;42.696;23.350;2022-08-19T01:15:33;95031.59;;;20.61;66.32
40708;BME280;26392;42.696;23.350;2022-08-19T01:18:06;95035.69;;;20.63;67.00
40708;BME280;26392;42.696;23.350;2022-08-19T01:20:32;95031.28;;;20.53;67.92
40708;BME280;26392;42.696;23.350;2022-08-19T01:22:59;95047.03;;;20.44;69.47
40708;BME280;26392;42.696;23.350;2022-08-19T01:25:49;95039.88;;;20.34;70.33
40708;BME280;26392;42.696;23.350;2022-08-19T01:28:24;95041.50;;;20.44;70.17
40708;BME280;26392;42.696;23.350;2022-08-19T01:30:52;95033.38;;;20.39;70.18
40708;BME280;26392;42.696;23.350;2022-08-19T01:33:18;95042.97;;;20.42;70.46
40708;BME280;26392;42.696;23.350;2022-08-19T01:35:45;95037.75;;;20.40;70.31
40708;BME280;26392;42.696;23.350;2022-08-19T01:38:21;95026.84;;;20.35;70.10
40708;BME280;26392;42.696;23.350;2022-08-19T01:40:47;95034.19;;;20.40;70.15
40708;BME280;26392;42.696;23.350;2022-08-19T01:43:12;95031.72;;;20.38;70.37
40708;BME280;26392;42.696;23.350;2022-08-19T01:45:38;95028.66;;;20.40;70.31
40708;BME280;26392;42.696;23.350;2022-08-19T01:48:06;95037.75;;;20.40;70.32
40708;BME280;26392;42.696;23.350;2022-08-19T01:50:33;95042.97;;;20.42;70.23
40708;BME280;26392;42.696;23.350;2022-08-19T01:53:00;95041.03;;;20.42;70.39
40708;BME280;26392;42.696;23.350;2022-08-19T01:55:26;95044.75;;;20.38;70.67
40708;BME280;26392;42.696;23.350;2022-08-19T01:58:00;95037.91;;;20.35;70.34
40708;BME280;26392;42.696;23.350;2022-08-19T02:00:29;95039.88;;;20.34;70.72
40708;BME280;26392;42.696;23.350;2022-08-19T02:02:55;95046.38;;;20.39;70.70
40708;BME280;26392;42.696;23.350;2022-08-19T02:05:22;95045.41;;;20.34;70.80
40708;BME280;26392;42.696;23.350;2022-08-19T02:07:48;95041.84;;;20.34;71.05
40708;BME280;26392;42.696;23.350;2022-08-19T02:10:18;95050.94;;;20.34;70.82
40708;BME280;26392;42.696;23.350;2022-08-19T02:12:44;95045.25;;;20.31;71.38
40708;BME280;26392;42.696;23.350;2022-08-19T02:15:10;95046.22;;;20.26;70.86
40708;BME280;26392;42.696;23.350;2022-08-19T02:17:36;95045.56;;;20.29;71.31
40708;BME280;26392;42.696;23.350;2022-08-19T02:20:02;95048.31;;;20.29;71.86
40708;BME280;26392;42.696;23.350;2022-08-19T02:22:28;95046.50;;;20.25;72.14
40708;BME280;26392;42.696;23.350;2022-08-19T02:24:54;95042.63;;;20.17;71.90
40708;BME280;26392;42.696;23.350;2022-08-19T02:27:21;95047.97;;;20.13;71.89
40708;BME280;26392;42.696;23.350;2022-08-19T02:29:49;95045.00;;;20.01;71.83
40708;BME280;26392;42.696;23.350;2022-08-19T02:32:15;95048.13;;;20.00;71.68
40708;BME280;26392;42.696;23.350;2022-08-19T02:34:41;95054.75;;;19.99;71.87
40708;BME280;26392;42.696;23.350;2022-08-19T02:37:07;95046.63;;;19.94;71.95
40708;BME280;26392;42.696;23.350;2022-08-19T02:39:53;95049.34;;;19.85;72.24
40708;BME280;26392;42.696;23.350;2022-08-19T02:42:18;95046.94;;;19.83;72.57
40708;BME280;26392;42.696;23.350;2022-08-19T02:44:43;95053.56;;;19.82;72.56
40708;BME280;26392;42.696;23.350;2022-08-19T02:47:09;95046.22;;;19.69;73.24
40708;BME280;26392;42.696;23.350;2022-08-19T02:49:35;95055.97;;;19.66;73.34
40708;BME280;26392;42.696;23.350;2022-08-19T02:52:02;95055.91;;;19.58;74.14
40708;BME280;26392;42.696;23.350;2022-08-19T02:54:28;95054.88;;;19.45;74.56
40708;BME280;26392;42.696;23.350;2022-08-19T02:56:53;95057.75;;;19.40;74.65
40708;BME280;26392;42.696;23.350;2022-08-19T02:59:19;95065.53;;;19.38;74.85
40708;BME280;26392;42.696;23.350;2022-08-19T03:01:45;95061.03;;;19.42;75.39
40708;BME280;26392;42.696;23.350;2022-08-19T03:04:13;95061.50;;;19.35;75.42
40708;BME280;26392;42.696;23.350;2022-08-19T03:06:42;95060.66;;;19.35;75.48
40708;BME280;26392;42.696;23.350;2022-08-19T03:09:08;95058.53;;;19.32;75.76
40708;BME280;26392;42.696;23.350;2022-08-19T03:11:34;95057.72;;;19.31;75.67
40708;BME280;26392;42.696;23.350;2022-08-19T03:14:00;95057.72;;;19.31;75.81
40708;BME280;26392;42.696;23.350;2022-08-19T03:16:28;95053.63;;;19.29;75.95
40708;BME280;26392;42.696;23.350;2022-08-19T03:18:56;95052.03;;;19.28;76.40
40708;BME280;26392;42.696;23.350;2022-08-19T03:21:24;95055.41;;;19.25;76.62
40708;BME280;26392;42.696;23.350;2022-08-19T03:23:54;95041.28;;;19.26;76.64
40708;BME280;26392;42.696;23.350;2022-08-19T03:26:20;95049.56;;;19.26;77.18
40708;BME280;26392;42.696;23.350;2022-08-19T03:28:45;95057.63;;;19.14;77.77
40708;BME280;26392;42.696;23.350;2022-08-19T03:31:19;95054.22;;;19.17;77.47
40708;BME280;26392;42.696;23.350;2022-08-19T03:33:47;95051.97;;;19.19;77.50
40708;BME280;26392;42.696;23.350;2022-08-19T03:36:15;95060.13;;;19.24;77.16
40708;BME280;26392;42.696;23.350;2022-08-19T03:38:46;95060.72;;;19.21;77.24
40708;BME280;26392;42.696;23.350;2022-08-19T03:41:15;95065.09;;;19.13;77.58
40708;BME280;26392;42.696;23.350;2022-08-19T03:43:42;95062.50;;;19.17;77.75
40708;BME280;26392;42.696;23.350;2022-08-19T03:46:18;95071.66;;;19.26;77.26
40708;BME280;26392;42.696;23.350;2022-08-19T03:48:46;95070.72;;;19.31;77.46
40708;BME280;26392;42.696;23.350;2022-08-19T03:51:21;95078.06;;;19.35;77.15
40708;BME280;26392;42.696;23.350;2022-08-19T03:53:48;95081.94;;;19.34;77.03
40708;BME280;26392;42.696;23.350;2022-08-19T03:56:14;95083.25;;;19.37;76.84
40708;BME280;26392;42.696;23.350;2022-08-19T03:58:40;95078.38;;;19.34;77.01
40708;BME280;26392;42.696;23.350;2022-08-19T04:01:11;95089.97;;;19.44;76.85
40708;BME280;26392;42.696;23.350;2022-08-19T04:03:38;95091.47;;;19.51;77.06
40708;BME280;26392;42.696;23.350;2022-08-19T04:08:41;95091.97;;;19.53;77.09
40708;BME280;26392;42.696;23.350;2022-08-19T04:11:14;95091.06;;;19.66;76.45
40708;BME280;26392;42.696;23.350;2022-08-19T04:13:40;95101.41;;;19.83;75.71
40708;BME280;26392;42.696;23.350;2022-08-19T04:16:06;95101.91;;;19.94;75.46
40708;BME280;26392;42.696;23.350;2022-08-19T04:18:35;95098.50;;;19.97;74.80
40708;BME280;26392;42.696;23.350;2022-08-19T04:21:00;95099.22;;;20.11;74.58
40708;BME280;26392;42.696;23.350;2022-08-19T04:23:26;95100.03;;;20.11;74.25
40708;BME280;26392;42.696;23.350;2022-08-19T04:25:53;95102.81;;;20.20;74.24
40708;BME280;26392;42.696;23.350;2022-08-19T04:28:19;95105.19;;;20.53;73.53
40708;BME280;26392;42.696;23.350;2022-08-19T04:30:48;95103.72;;;21.25;70.95
40708;BME280;26392;42.696;23.350;2022-08-19T04:33:17;95101.00;;;21.81;67.69
40708;BME280;26392;42.696;23.350;2022-08-19T04:35:46;95102.53;;;22.38;65.94
40708;BME280;26392;42.696;23.350;2022-08-19T04:38:13;95107.88;;;22.93;64.32
40708;BME280;26392;42.696;23.350;2022-08-19T04:40:43;95112.19;;;23.12;61.92
40708;BME280;26392;42.696;23.350;2022-08-19T04:43:28;95106.34;;;23.05;61.90
40708;BME280;26392;42.696;23.350;2022-08-19T04:45:54;95108.44;;;23.08;62.07
40708;BME280;26392;42.696;23.350;2022-08-19T04:48:20;95100.44;;;22.85;62.07
40708;BME280;26392;42.696;23.350;2022-08-19T04:50:54;95100.44;;;22.64;63.58
40708;BME280;26392;42.696;23.350;2022-08-19T04:53:30;95103.38;;;22.38;63.36
40708;BME280;26392;42.696;23.350;2022-08-19T04:55:57;95108.06;;;22.08;64.63
40708;BME280;26392;42.696;23.350;2022-08-19T04:58:25;95103.69;;;21.98;65.31
40708;BME280;26392;42.696;23.350;2022-08-19T05:00:51;95099.97;;;21.94;65.47
40708;BME280;26392;42.696;23.350;2022-08-19T05:03:17;95103.06;;;21.93;65.37
40708;BME280;26392;42.696;23.350;2022-08-19T05:05:43;95105.22;;;21.87;65.65
40708;BME280;26392;42.696;23.350;2022-08-19T05:08:10;95112.91;;;21.81;65.90
40708;BME280;26392;42.696;23.350;2022-08-19T05:10:37;95113.22;;;21.88;65.86
40708;BME280;26392;42.696;23.350;2022-08-19T05:13:03;95115.19;;;21.88;65.91
40708;BME280;26392;42.696;23.350;2022-08-19T05:15:29;95113.84;;;21.94;65.91
40708;BME280;26392;42.696;23.350;2022-08-19T05:17:55;95113.03;;;21.94;66.11
40708;BME280;26392;42.696;23.350;2022-08-19T05:20:39;95106.28;;;22.03;66.08
40708;BME280;26392;42.696;23.350;2022-08-19T05:23:23;95108.78;;;21.96;66.19
40708;BME280;26392;42.696;23.350;2022-08-19T05:25:49;95114.13;;;22.01;65.99
40708;BME280;26392;42.696;23.350;2022-08-19T05:28:15;95112.53;;;21.92;67.30
40708;BME280;26392;42.696;23.350;2022-08-19T05:30:41;95108.88;;;22.08;66.49
40708;BME280;26392;42.696;23.350;2022-08-19T05:33:08;95110.59;;;22.30;66.85
40708;BME280;26392;42.696;23.350;2022-08-19T05:35:36;95109.75;;;22.39;65.89
40708;BME280;26392;42.696;23.350;2022-08-19T05:38:02;95118.50;;;22.49;65.50
40708;BME280;26392;42.696;23.350;2022-08-19T05:40:28;95118.75;;;22.56;64.92
40708;BME280;26392;42.696;23.350;2022-08-19T05:42:54;95111.34;;;22.69;64.69
40708;BME280;26392;42.696;23.350;2022-08-19T05:45:19;95121.41;;;22.74;63.66
40708;BME280;26392;42.696;23.350;2022-08-19T05:47:46;95116.97;;;22.82;63.72
40708;BME280;26392;42.696;23.350;2022-08-19T05:50:12;95117.56;;;22.87;62.99
40708;BME280;26392;42.696;23.350;2022-08-19T05:52:38;95110.66;;;22.93;63.08
40708;BME280;26392;42.696;23.350;2022-08-19T05:55:04;95113.75;;;23.00;63.43
40708;BME280;26392;42.696;23.350;2022-08-19T05:57:30;95110.22;;;23.12;63.05
40708;BME280;26392;42.696;23.350;2022-08-19T05:59:56;95113.34;;;23.11;62.82
40708;BME280;26392;42.696;23.350;2022-08-19T06:02:22;95109.34;;;22.99;63.56
40708;BME280;26392;42.696;23.350;2022-08-19T06:04:48;95109.19;;;23.17;62.83
40708;BME280;26392;42.696;23.350;2022-08-19T06:07:14;95115.59;;;23.30;62.14
40708;BME280;26392;42.696;23.350;2022-08-19T06:09:40;95118.53;;;23.33;62.40
40708;BME280;26392;42.696;23.350;2022-08-19T06:12:06;95121.25;;;23.42;62.03
40708;BME280;26392;42.696;23.350;2022-08-19T06:14:34;95118.09;;;23.43;62.15
40708;BME280;26392;42.696;23.350;2022-08-19T06:17:00;95118.25;;;23.47;62.20
40708;BME280;26392;42.696;23.350;2022-08-19T06:19:27;95120.09;;;23.55;61.29
40708;BME280;26392;42.696;23.350;2022-08-19T06:21:55;95124.06;;;23.66;60.32
40708;BME280;26392;42.696;23.350;2022-08-19T06:24:24;95124.03;;;23.75;60.98
40708;BME280;26392;42.696;23.350;2022-08-19T06:26:52;95124.28;;;23.82;60.06
40708;BME280;26392;42.696;23.350;2022-08-19T06:29:20;95119.41;;;23.92;59.52
40708;BME280;26392;42.696;23.350;2022-08-19T06:31:49;95124.66;;;24.05;59.26
40708;BME280;26392;42.696;23.350;2022-08-19T06:34:16;95124.44;;;23.98;58.27
40708;BME280;26392;42.696;23.350;2022-08-19T06:36:45;95126.25;;;23.94;58.38
40708;BME280;26392;42.696;23.350;2022-08-19T06:39:14;95128.50;;;24.13;58.28
40708;BME280;26392;42.696;23.350;2022-08-19T06:41:42;95123.88;;;24.17;58.41
40708;BME280;26392;42.696;23.350;2022-08-19T06:44:09;95118.53;;;24.24;58.77
40708;BME280;26392;42.696;23.350;2022-08-19T06:46:36;95118.88;;;24.35;56.92
40708;BME280;26392;42.696;23.350;2022-08-19T06:49:02;95120.41;;;24.45;56.71
40708;BME280;26392;42.696;23.350;2022-08-19T06:51:28;95123.09;;;24.53;57.08
40708;BME280;26392;42.696;23.350;2022-08-19T06:53:54;95118.34;;;24.54;57.49
40708;BME280;26392;42.696;23.350;2022-08-19T06:56:27;95123.66;;;24.71;56.39
40708;BME280;26392;42.696;23.350;2022-08-19T06:59:06;95125.13;;;24.93;56.56
40708;BME280;26392;42.696;23.350;2022-08-19T07:01:37;95124.31;;;24.93;56.50
40708;BME280;26392;42.696;23.350;2022-08-19T07:04:06;95124.41;;;24.84;56.21
40708;BME280;26392;42.696;23.350;2022-08-19T07:06:34;95128.34;;;25.08;56.29
40708;BME280;26392;42.696;23.350;2022-08-19T07:08:59;95134.69;;;25.20;55.63
40708;BME280;26392;42.696;23.350;2022-08-19T07:11:25;95137.72;;;25.28;55.06
40708;BME280;26392;42.696;23.350;2022-08-19T07:13:51;95136.28;;;25.34;53.81
40708;BME280;26392;42.696;23.350;2022-08-19T07:16:18;95125.09;;;25.46;53.35
40708;BME280;26392;42.696;23.350;2022-08-19T07:18:45;95133.75;;;25.57;53.71
40708;BME280;26392;42.696;23.350;2022-08-19T07:21:17;95123.19;;;25.78;53.66
40708;BME280;26392;42.696;23.350;2022-08-19T07:23:45;95122.34;;;25.90;53.63
40708;BME280;26392;42.696;23.350;2022-08-19T07:26:23;95126.06;;;25.94;52.04
40708;BME280;26392;42.696;23.350;2022-08-19T07:28:50;95121.91;;;26.04;51.04
40708;BME280;26392;42.696;23.350;2022-08-19T07:31:22;95110.75;;;26.20;51.44
40708;BME280;26392;42.696;23.350;2022-08-19T07:33:50;95121.47;;;26.33;50.82
40708;BME280;26392;42.696;23.350;2022-08-19T07:36:20;95127.03;;;26.49;50.10
40708;BME280;26392;42.696;23.350;2022-08-19T07:38:48;95114.09;;;26.57;50.47
40708;BME280;26392;42.696;23.350;2022-08-19T07:41:22;95114.16;;;26.61;49.87
40708;BME280;26392;42.696;23.350;2022-08-19T07:43:48;95108.81;;;26.71;49.02
40708;BME280;26392;42.696;23.350;2022-08-19T07:46:14;95107.75;;;26.76;49.43
40708;BME280;26392;42.696;23.350;2022-08-19T07:48:44;95113.94;;;26.85;48.10
40708;BME280;26392;42.696;23.350;2022-08-19T07:51:16;95115.94;;;26.85;48.67
40708;BME280;26392;42.696;23.350;2022-08-19T07:53:41;95111.78;;;26.94;47.97
40708;BME280;26392;42.696;23.350;2022-08-19T07:56:08;95119.22;;;27.06;48.46
40708;BME280;26392;42.696;23.350;2022-08-19T07:58:37;95113.09;;;27.00;48.41
40708;BME280;26392;42.696;23.350;2022-08-19T08:01:04;95117.00;;;27.15;47.88
40708;BME280;26392;42.696;23.350;2022-08-19T08:03:30;95122.88;;;27.26;47.11
40708;BME280;26392;42.696;23.350;2022-08-19T08:06:14;95115.97;;;27.39;47.16
40708;BME280;26392;42.696;23.350;2022-08-19T08:08:59;95109.47;;;27.55;46.53
40708;BME280;26392;42.696;23.350;2022-08-19T08:11:38;95115.94;;;27.59;46.39
40708;BME280;26392;42.696;23.350;2022-08-19T08:14:04;95109.22;;;27.83;45.44
40708;BME280;26392;42.696;23.350;2022-08-19T08:16:38;95107.75;;;27.89;45.85
40708;BME280;26392;42.696;23.350;2022-08-19T08:19:05;95103.97;;;28.01;45.08
40708;BME280;26392;42.696;23.350;2022-08-19T08:21:32;95104.47;;;28.06;45.15
40708;BME280;26392;42.696;23.350;2022-08-19T08:23:57;95095.94;;;28.22;44.42
40708;BME280;26392;42.696;23.350;2022-08-19T08:26:24;95087.28;;;28.31;44.23
40708;BME280;26392;42.696;23.350;2022-08-19T08:28:50;95100.00;;;28.48;44.67
40708;BME280;26392;42.696;23.350;2022-08-19T08:31:16;95090.25;;;28.65;43.95
40708;BME280;26392;42.696;23.350;2022-08-19T08:33:43;95094.13;;;28.83;43.83
40708;BME280;26392;42.696;23.350;2022-08-19T08:36:09;95089.97;;;29.00;44.32
40708;BME280;26392;42.696;23.350;2022-08-19T08:38:35;95090.53;;;29.09;42.90
40708;BME280;26392;42.696;23.350;2022-08-19T08:41:22;95088.63;;;29.17;42.17
40708;BME280;26392;42.696;23.350;2022-08-19T08:43:53;95088.44;;;29.33;42.87
40708;BME280;26392;42.696;23.350;2022-08-19T08:47:09;95085.28;;;29.38;42.31
40708;BME280;26392;42.696;23.350;2022-08-19T08:52:10;95083.22;;;29.65;42.25
40708;BME280;26392;42.696;23.350;2022-08-19T08:54:43;95071.75;;;29.77;41.37
40708;BME280;26392;42.696;23.350;2022-08-19T08:57:21;95067.78;;;29.85;42.09
40708;BME280;26392;42.696;23.350;2022-08-19T08:59:50;95067.09;;;29.96;39.90
40708;BME280;26392;42.696;23.350;2022-08-19T09:02:19;95065.16;;;30.00;38.33
40708;BME280;26392;42.696;23.350;2022-08-19T09:04:45;95064.06;;;30.11;39.13
40708;BME280;26392;42.696;23.350;2022-08-19T09:10:49;95060.69;;;30.36;38.55
40708;BME280;26392;42.696;23.350;2022-08-19T09:15:55;95053.63;;;30.57;36.35
40708;BME280;26392;42.696;23.350;2022-08-19T09:18:22;95051.69;;;30.68;36.37
40708;BME280;26392;42.696;23.350;2022-08-19T09:20:48;95048.88;;;30.64;36.59
40708;BME280;26392;42.696;23.350;2022-08-19T09:23:14;95052.13;;;30.77;36.38
40708;BME280;26392;42.696;23.350;2022-08-19T09:25:39;95049.00;;;30.86;35.55
40708;BME280;26392;42.696;23.350;2022-08-19T09:28:05;95042.28;;;31.05;36.20
40708;BME280;26392;42.696;23.350;2022-08-19T09:30:34;95040.75;;;31.21;34.34
40708;BME280;26392;42.696;23.350;2022-08-19T09:33:00;95042.84;;;31.35;33.81
40708;BME280;26392;42.696;23.350;2022-08-19T09:35:27;95035.25;;;31.50;33.48
40708;BME280;26392;42.696;23.350;2022-08-19T09:37:55;95039.31;;;31.53;33.01
40708;BME280;26392;42.696;23.350;2022-08-19T09:40:22;95023.25;;;31.67;32.73
40708;BME280;26392;42.696;23.350;2022-08-19T09:42:48;95023.31;;;31.82;33.51
40708;BME280;26392;42.696;23.350;2022-08-19T09:45:19;95030.97;;;31.92;31.26
40708;BME280;26392;42.696;23.350;2022-08-19T09:47:50;95036.59;;;31.92;31.46
40708;BME280;26392;42.696;23.350;2022-08-19T09:50:16;95029.78;;;31.97;31.81
40708;BME280;26392;42.696;23.350;2022-08-19T09:52:41;95025.78;;;32.01;31.79
40708;BME280;26392;42.696;23.350;2022-08-19T09:55:09;95031.81;;;32.07;30.85
40708;BME280;26392;42.696;23.350;2022-08-19T09:57:35;95017.72;;;32.07;30.32
40708;BME280;26392;42.696;23.350;2022-08-19T10:00:03;95019.34;;;32.08;30.25
40708;BME280;26392;42.696;23.350;2022-08-19T10:02:28;95008.06;;;32.08;30.51
40708;BME280;26392;42.696;23.350;2022-08-19T10:04:54;95008.84;;;32.08;30.75
40708;BME280;26392;42.696;23.350;2022-08-19T10:07:38;95007.63;;;32.09;30.81
40708;BME280;26392;42.696;23.350;2022-08-19T10:10:05;94999.19;;;32.17;31.29
40708;BME280;26392;42.696;23.350;2022-08-19T10:12:32;95002.41;;;32.26;30.29
40708;BME280;26392;42.696;23.350;2022-08-19T10:14:58;94999.63;;;32.19;30.46
40708;BME280;26392;42.696;23.350;2022-08-19T10:17:24;94997.19;;;32.31;31.38
40708;BME280;26392;42.696;23.350;2022-08-19T10:19:51;94993.53;;;32.45;32.27
40708;BME280;26392;42.696;23.350;2022-08-19T10:22:20;95001.63;;;32.58;32.27
40708;BME280;26392;42.696;23.350;2022-08-19T10:24:46;94993.53;;;32.78;30.43
40708;BME280;26392;42.696;23.350;2022-08-19T10:27:11;94990.66;;;32.92;31.15
40708;BME280;26392;42.696;23.350;2022-08-19T10:29:38;94991.50;;;32.82;30.27
40708;BME280;26392;42.696;23.350;2022-08-19T10:32:06;94980.16;;;32.96;30.98
40708;BME280;26392;42.696;23.350;2022-08-19T10:34:34;94984.63;;;32.90;30.34
40708;BME280;26392;42.696;23.350;2022-08-19T10:37:01;94979.38;;;32.95;29.88
40708;BME280;26392;42.696;23.350;2022-08-19T10:39:29;94976.16;;;32.97;30.47
40708;BME280;26392;42.696;23.350;2022-08-19T10:44:41;94978.94;;;33.08;31.26
40708;BME280;26392;42.696;23.350;2022-08-19T10:47:06;94975.69;;;33.16;30.33
40708;BME280;26392;42.696;23.350;2022-08-19T10:49:32;94976.06;;;33.26;29.99
40708;BME280;26392;42.696;23.350;2022-08-19T10:52:36;94978.06;;;33.25;29.73
40708;BME280;26392;42.696;23.350;2022-08-19T10:55:06;94969.19;;;33.27;29.48
40708;BME280;26392;42.696;23.350;2022-08-19T10:57:50;94970.00;;;33.31;30.37
40708;BME280;26392;42.696;23.350;2022-08-19T11:00:19;94963.53;;;33.30;29.84
40708;BME280;26392;42.696;23.350;2022-08-19T11:02:45;94964.00;;;33.18;29.96
40708;BME280;26392;42.696;23.350;2022-08-19T11:05:11;94976.84;;;33.33;30.38
40708;BME280;26392;42.696;23.350;2022-08-19T11:07:38;94960.25;;;33.35;30.34
40708;BME280;26392;42.696;23.350;2022-08-19T11:10:05;94954.16;;;33.44;29.81
40708;BME280;26392;42.696;23.350;2022-08-19T11:12:31;94966.25;;;33.48;29.54
40708;BME280;26392;42.696;23.350;2022-08-19T11:14:58;94954.53;;;33.57;30.14
40708;BME280;26392;42.696;23.350;2022-08-19T11:17:23;94948.44;;;33.65;30.30
40708;BME280;26392;42.696;23.350;2022-08-19T11:19:49;94959.31;;;33.67;29.66
40708;BME280;26392;42.696;23.350;2022-08-19T11:22:15;94948.09;;;33.49;30.08
40708;BME280;26392;42.696;23.350;2022-08-19T11:24:42;94945.19;;;33.67;29.87
40708;BME280;26392;42.696;23.350;2022-08-19T11:27:09;94947.59;;;33.69;29.75
40708;BME280;26392;42.696;23.350;2022-08-19T11:29:37;94944.31;;;33.77;29.71
40708;BME280;26392;42.696;23.350;2022-08-19T11:32:06;94939.47;;;33.78;28.59
40708;BME280;26392;42.696;23.350;2022-08-19T11:34:32;94939.09;;;33.76;29.86
40708;BME280;26392;42.696;23.350;2022-08-19T11:36:58;94938.22;;;33.82;29.86
40708;BME280;26392;42.696;23.350;2022-08-19T11:39:25;94938.53;;;33.92;29.47
40708;BME280;26392;42.696;23.350;2022-08-19T11:41:51;94930.13;;;33.84;29.28
40708;BME280;26392;42.696;23.350;2022-08-19T11:44:17;94920.03;;;33.87;29.06
40708;BME280;26392;42.696;23.350;2022-08-19T11:46:44;94916.38;;;33.90;28.58
40708;BME280;26392;42.696;23.350;2022-08-19T11:49:16;94917.88;;;34.02;29.42
40708;BME280;26392;42.696;23.350;2022-08-19T11:51:43;94912.56;;;34.11;28.71
40708;BME280;26392;42.696;23.350;2022-08-19T11:54:10;94914.56;;;34.18;29.84
40708;BME280;26392;42.696;23.350;2022-08-19T11:56:37;94912.44;;;34.29;28.72
40708;BME280;26392;42.696;23.350;2022-08-19T11:59:03;94917.59;;;34.38;29.88
40708;BME280;26392;42.696;23.350;2022-08-19T12:01:29;94910.28;;;34.40;29.18
40708;BME280;26392;42.696;23.350;2022-08-19T12:03:55;94901.38;;;34.42;28.66
40708;BME280;26392;42.696;23.350;2022-08-19T12:06:27;94901.59;;;34.20;27.98
40708;BME280;26392;42.696;23.350;2022-08-19T12:08:54;94896.44;;;34.12;29.24
40708;BME280;26392;42.696;23.350;2022-08-19T12:11:20;94889.63;;;34.05;28.81
40708;BME280;26392;42.696;23.350;2022-08-19T12:13:46;94891.25;;;34.06;29.23
40708;BME280;26392;42.696;23.350;2022-08-19T12:16:19;94888.28;;;34.21;29.51
40708;BME280;26392;42.696;23.350;2022-08-19T12:18:47;94883.38;;;34.25;29.24
40708;BME280;26392;42.696;23.350;2022-08-19T12:21:14;94874.91;;;34.25;28.57
40708;BME280;26392;42.696;23.350;2022-08-19T12:23:41;94878.00;;;34.38;28.84
40708;BME280;26392;42.696;23.350;2022-08-19T12:26:09;94871.84;;;34.46;28.40
40708;BME280;26392;42.696;23.350;2022-08-19T12:28:35;94868.94;;;34.57;27.96
40708;BME280;26392;42.696;23.350;2022-08-19T12:31:00;94873.69;;;34.64;28.09
40708;BME280;26392;42.696;23.350;2022-08-19T12:33:26;94871.31;;;34.59;28.17
40708;BME280;26392;42.696;23.350;2022-08-19T12:35:53;94866.16;;;34.50;28.23
40708;BME280;26392;42.696;23.350;2022-08-19T12:38:19;94863.31;;;34.50;28.30
40708;BME280;26392;42.696;23.350;2022-08-19T12:40:46;94861.63;;;34.60;28.64
40708;BME280;26392;42.696;23.350;2022-08-19T12:43:12;94858.28;;;34.68;27.99
40708;BME280;26392;42.696;23.350;2022-08-19T12:45:39;94863.16;;;34.68;28.54
40708;BME280;26392;42.696;23.350;2022-08-19T12:48:05;94864.38;;;34.67;27.61
40708;BME280;26392;42.696;23.350;2022-08-19T12:50:30;94858.81;;;34.60;27.45
40708;BME280;26392;42.696;23.350;2022-08-19T12:52:57;94860.47;;;34.53;28.23
40708;BME280;26392;42.696;23.350;2022-08-19T12:55:23;94862.53;;;34.49;27.99
40708;BME280;26392;42.696;23.350;2022-08-19T12:57:50;94855.63;;;34.54;27.79
40708;BME280;26392;42.696;23.350;2022-08-19T13:00:18;94847.09;;;34.58;28.75
40708;BME280;26392;42.696;23.350;2022-08-19T13:02:47;94853.81;;;34.71;28.86
40708;BME280;26392;42.696;23.350;2022-08-19T13:05:17;94849.25;;;34.81;29.14
40708;BME280;26392;42.696;23.350;2022-08-19T13:07:45;94858.50;;;34.85;29.48
40708;BME280;26392;42.696;23.350;2022-08-19T13:10:13;94843.44;;;34.91;28.79